createdAt,value
2019-04-25T09:56:25.462Z,989.31
2019-04-25T09:57:25.475Z,989.41
2019-04-25T09:58:26.778Z,989.33
2019-04-25T09:59:29.866Z,989.28
2019-04-25T10:00:28.184Z,989.14
2019-04-25T10:01:27.388Z,989.05
2019-04-25T10:02:27.501Z,989.04
2019-04-25T10:03:28.602Z,988.97
2019-04-25T10:04:27.958Z,988.89
2019-04-25T10:05:28.081Z,988.84
2019-04-25T10:06:28.205Z,988.75
2019-04-25T10:07:28.435Z,988.72
2019-04-25T10:08:28.671Z,988.68
2019-04-25T10:09:28.873Z,988.74
2019-04-25T10:10:29.005Z,988.70
2019-04-25T10:11:29.150Z,988.64
2019-04-25T10:12:29.305Z,988.62
2019-04-25T10:13:29.432Z,988.57
2019-04-25T10:14:29.587Z,988.58
2019-04-25T10:15:29.734Z,988.71
2019-04-25T10:16:29.887Z,988.51
2019-04-25T10:17:30.045Z,988.49
2019-04-25T10:18:30.227Z,988.48
2019-04-25T10:19:31.082Z,988.63
2019-04-25T10:20:30.598Z,988.56
2019-04-25T10:21:30.748Z,988.54
2019-04-25T10:22:30.888Z,988.50
2019-04-25T10:23:31.032Z,988.68
2019-04-25T10:24:32.104Z,988.57
2019-04-25T10:25:31.599Z,988.66
2019-04-25T10:26:31.460Z,988.60
2019-04-25T10:27:31.604Z,988.60
2019-04-25T10:28:33.629Z,988.57
2019-04-25T10:29:41.665Z,988.57
2019-04-25T10:30:34.364Z,988.52
2019-04-25T10:31:33.771Z,988.64
2019-04-25T10:32:33.570Z,988.50
2019-04-25T10:33:33.738Z,988.53
2019-04-25T10:34:33.589Z,988.47
2019-04-25T10:35:46.266Z,988.40
2019-04-25T10:36:35.245Z,988.35
2019-04-25T10:37:33.636Z,988.47
2019-04-25T10:38:35.167Z,988.43
2019-04-25T10:39:34.863Z,988.53
2019-04-25T10:40:34.008Z,988.37
2019-04-25T10:41:35.863Z,988.31
2019-04-25T10:42:34.378Z,988.42
2019-04-25T10:43:35.095Z,988.36
2019-04-25T10:44:34.746Z,988.46
2019-04-25T10:45:34.873Z,988.43
2019-04-25T10:46:35.235Z,988.45
2019-04-25T10:47:35.426Z,988.43
2019-04-25T10:48:36.450Z,988.41
2019-04-25T10:49:37.592Z,988.45
2019-04-25T10:50:35.796Z,988.47
2019-04-25T10:51:35.957Z,988.50
2019-04-25T10:52:36.131Z,988.41
2019-04-25T10:53:36.259Z,988.38
2019-04-25T10:54:36.385Z,988.42
2019-04-25T10:55:36.627Z,988.61
2019-04-25T10:56:39.226Z,988.45
2019-04-25T10:57:36.905Z,988.56
2019-04-25T10:58:37.046Z,988.59
2019-04-25T10:59:37.176Z,988.65
2019-04-25T11:00:37.313Z,988.59
2019-04-25T11:01:38.101Z,988.67
2019-04-25T11:02:37.649Z,988.49
2019-04-25T11:03:37.817Z,988.49
2019-04-25T11:04:39.649Z,988.54
2019-04-25T11:05:38.183Z,988.44
2019-04-25T11:06:39.109Z,988.44
2019-04-25T11:07:38.522Z,988.53
2019-04-25T11:08:40.416Z,988.43
2019-04-25T11:09:39.604Z,988.37
2019-04-25T11:10:39.702Z,988.31
2019-04-25T11:11:40.728Z,988.34
2019-04-25T11:12:40.001Z,988.20
2019-04-25T11:13:39.601Z,988.31
2019-04-25T11:14:40.851Z,988.24
2019-04-25T11:15:40.612Z,988.15
2019-04-25T11:16:40.154Z,988.14
2019-04-25T11:17:42.598Z,988.10
2019-04-25T11:18:41.820Z,988.15
2019-04-25T11:19:44.539Z,988.29
2019-04-25T11:20:41.119Z,988.34
2019-04-25T11:21:41.297Z,988.18
2019-04-25T11:22:42.373Z,988.32
2019-04-25T11:23:41.452Z,988.26
2019-04-25T11:24:42.371Z,988.33
2019-04-25T11:25:41.766Z,988.32
2019-04-25T11:26:44.591Z,988.36
2019-04-25T11:27:43.884Z,988.37
2019-04-25T11:28:45.143Z,988.34
2019-04-25T11:29:44.722Z,988.32
2019-04-25T11:30:45.316Z,988.29
2019-04-25T11:31:44.875Z,988.31
2019-04-25T11:32:45.201Z,988.37
2019-04-25T11:33:44.637Z,988.31
2019-04-25T11:34:46.120Z,988.45
2019-04-25T11:35:44.188Z,988.39
2019-04-25T11:36:44.015Z,988.44
2019-04-25T11:37:44.642Z,988.47
2019-04-25T11:38:44.140Z,988.50
2019-04-25T11:39:45.050Z,988.49
2019-04-25T11:40:48.795Z,988.38
2019-04-25T11:41:46.244Z,988.43
2019-04-25T11:42:46.235Z,988.43
2019-04-25T11:43:46.389Z,988.39
2019-04-25T11:44:46.621Z,988.38
2019-04-25T11:45:46.087Z,988.48
2019-04-25T11:46:46.660Z,988.40
2019-04-25T11:47:47.145Z,988.33
2019-04-25T11:48:46.621Z,988.26
2019-04-25T11:49:47.429Z,988.19
2019-04-25T11:50:50.999Z,988.28
2019-04-25T11:51:50.249Z,988.11
2019-04-25T11:52:47.125Z,988.16
2019-04-25T11:53:48.413Z,988.16
2019-04-25T11:54:48.074Z,988.19
2019-04-25T11:55:48.167Z,988.13
2019-04-25T11:56:49.144Z,988.17
2019-04-25T11:57:50.077Z,988.21
2019-04-25T11:58:48.963Z,988.21
2019-04-25T11:59:49.283Z,988.14
2019-04-25T12:00:48.932Z,988.24
2019-04-25T12:01:49.867Z,988.16
2019-04-25T12:02:48.290Z,988.12
2019-04-25T12:03:50.134Z,988.08
2019-04-25T12:04:49.056Z,988.10
2019-04-25T12:05:49.435Z,988.20
2019-04-25T12:06:49.634Z,988.11
2019-04-25T12:07:50.133Z,988.11
2019-04-25T12:08:49.633Z,988.13
2019-04-25T12:09:49.975Z,988.18
2019-04-25T12:10:51.585Z,988.13
2019-04-25T12:11:49.974Z,988.19
2019-04-25T12:12:50.093Z,988.25
2019-04-25T12:13:51.619Z,988.19
2019-04-25T12:14:51.666Z,988.14
2019-04-25T12:15:50.625Z,988.15
2019-04-25T12:16:51.893Z,988.06
2019-04-25T12:17:54.280Z,988.01
2019-04-25T12:18:54.901Z,988.00
2019-04-25T12:19:53.931Z,987.91
2019-04-25T12:20:52.155Z,987.95
2019-04-25T12:21:53.555Z,988.03
2019-04-25T12:23:04.129Z,988.04
2019-04-25T12:23:54.131Z,988.00
2019-04-25T12:24:54.697Z,987.96
2019-04-25T12:25:54.386Z,987.99
2019-04-25T12:26:54.842Z,987.92
2019-04-25T12:27:54.713Z,987.84
2019-04-25T12:28:56.397Z,987.87
2019-04-25T12:29:54.480Z,987.83
2019-04-25T12:30:55.358Z,987.94
2019-04-25T12:31:54.964Z,987.80
2019-04-25T12:32:55.245Z,987.86
2019-04-25T12:33:55.234Z,987.85
2019-04-25T12:34:56.177Z,987.85
2019-04-25T12:35:55.592Z,987.87
2019-04-25T12:36:55.688Z,987.80
2019-04-25T12:37:55.528Z,987.73
2019-04-25T12:38:56.031Z,987.80
2019-04-25T12:39:56.146Z,987.77
2019-04-25T12:40:55.662Z,987.79
2019-04-25T12:41:56.067Z,987.72
2019-04-25T12:42:57.643Z,987.63
2019-04-25T12:43:56.633Z,987.58
2019-04-25T12:44:56.172Z,987.60
2019-04-25T12:45:57.154Z,987.60
2019-04-25T12:46:57.126Z,987.57
2019-04-25T12:47:59.205Z,987.58
2019-04-25T12:48:58.173Z,987.53
2019-04-25T12:49:57.878Z,987.57
2019-04-25T12:50:57.667Z,987.67
2019-04-25T12:51:57.294Z,987.70
2019-04-25T12:52:58.116Z,987.70
2019-04-25T12:53:58.649Z,987.69
2019-04-25T12:54:58.186Z,987.77
2019-04-25T12:55:58.978Z,987.69
2019-04-25T12:56:58.227Z,987.72
2019-04-25T12:57:58.373Z,987.70
2019-04-25T12:58:58.655Z,987.61
2019-04-25T12:59:58.672Z,987.57
2019-04-25T13:00:59.999Z,987.60
2019-04-25T13:02:00.166Z,987.58
2019-04-25T13:02:59.155Z,987.45
2019-04-25T13:03:59.307Z,987.48
2019-04-25T13:04:59.424Z,987.56
2019-04-25T13:05:59.656Z,987.64
2019-04-25T13:07:00.701Z,987.58
2019-04-25T13:08:01.057Z,987.55
2019-04-25T13:09:01.309Z,987.54
2019-04-25T13:10:00.353Z,987.52
2019-04-25T13:11:07.874Z,987.38
2019-04-25T13:12:04.302Z,987.49
2019-04-25T13:13:00.814Z,987.35
2019-04-25T13:14:00.974Z,987.39
2019-04-25T13:15:01.146Z,987.40
2019-04-25T13:16:01.288Z,987.29
2019-04-25T13:17:01.447Z,987.32
2019-04-25T13:18:01.593Z,987.31
2019-04-25T13:19:14.482Z,987.36
2019-04-25T13:20:04.458Z,987.46
2019-04-25T13:21:03.488Z,987.46
2019-04-25T13:22:02.866Z,987.49
2019-04-25T13:23:03.533Z,987.45
2019-04-25T13:24:03.698Z,987.46
2019-04-25T13:25:03.451Z,987.47
2019-04-25T13:26:05.301Z,987.43
2019-04-25T13:27:04.255Z,987.33
2019-04-25T13:28:06.608Z,987.41
2019-04-25T13:29:05.655Z,987.37
2019-04-25T13:30:05.527Z,987.35
2019-04-25T13:31:11.453Z,987.38
2019-04-25T13:32:06.311Z,987.40
2019-04-25T13:33:04.452Z,987.34
2019-04-25T13:34:05.797Z,987.32
2019-04-25T13:35:04.871Z,987.23
2019-04-25T13:36:04.880Z,987.31
2019-04-25T13:37:06.294Z,987.33
2019-04-25T13:38:05.188Z,987.32
2019-04-25T13:39:05.596Z,987.31
2019-04-25T13:40:06.478Z,987.18
2019-04-25T13:41:05.612Z,987.36
2019-04-25T13:42:06.770Z,987.36
2019-04-25T13:43:06.212Z,987.36
2019-04-25T13:44:07.087Z,987.29
2019-04-25T13:45:06.240Z,987.29
2019-04-25T13:46:06.402Z,987.22
2019-04-25T13:47:06.534Z,987.28
2019-04-25T13:48:06.672Z,987.29
2019-04-25T13:49:07.656Z,987.27
2019-04-25T13:50:07.022Z,987.25
2019-04-25T13:51:07.194Z,987.22
2019-04-25T13:52:07.317Z,987.20
2019-04-25T13:53:07.561Z,987.19
2019-04-25T13:54:07.690Z,987.11
2019-04-25T13:55:07.856Z,987.06
2019-04-25T13:56:08.016Z,987.08
2019-04-25T13:57:08.141Z,987.07
2019-04-25T13:58:08.314Z,987.06
2019-04-25T13:59:08.470Z,987.16
2019-04-25T14:00:08.627Z,987.21
2019-04-25T14:01:13.283Z,987.15
2019-04-25T14:02:11.002Z,987.11
2019-04-25T14:03:09.242Z,987.12
2019-04-25T14:04:10.407Z,987.14
2019-04-25T14:05:09.519Z,987.13
2019-04-25T14:06:09.633Z,987.12
2019-04-25T14:07:09.790Z,987.05
2019-04-25T14:08:10.663Z,987.08
2019-04-25T14:09:10.156Z,987.01
2019-04-25T14:10:11.157Z,987.04
2019-04-25T14:11:11.166Z,987.04
2019-04-25T14:12:10.682Z,986.94
2019-04-25T14:13:13.400Z,986.95
2019-04-25T14:14:11.090Z,986.99
2019-04-25T14:15:13.821Z,986.92
2019-04-25T14:16:13.768Z,986.89
2019-04-25T14:17:13.843Z,986.85
2019-04-25T14:18:13.751Z,986.85
2019-04-25T14:19:13.042Z,986.81
2019-04-25T14:20:12.248Z,986.76
2019-04-25T14:21:13.313Z,986.86
2019-04-25T14:22:13.662Z,986.80
2019-04-25T14:23:13.460Z,986.80
2019-04-25T14:24:20.313Z,986.81
2019-04-25T14:25:15.216Z,986.85
2019-04-25T14:26:14.447Z,987.01
2019-04-25T14:27:13.714Z,987.01
2019-04-25T14:28:14.807Z,987.02
2019-04-25T14:29:14.676Z,986.96
2019-04-25T14:30:14.039Z,986.93
2019-04-25T14:31:30.544Z,986.92
2019-04-25T14:32:17.174Z,986.94
2019-04-25T14:33:14.518Z,986.83
2019-04-25T14:34:14.662Z,986.70
2019-04-25T14:35:14.797Z,986.77
2019-04-25T14:36:15.002Z,986.76
2019-04-25T14:37:16.256Z,986.73
2019-04-25T14:38:15.477Z,986.73
2019-04-25T14:39:15.648Z,986.76
2019-04-25T14:40:15.778Z,986.73
2019-04-25T14:41:16.685Z,986.75
2019-04-25T14:42:16.676Z,986.76
2019-04-25T14:43:16.408Z,986.80
2019-04-25T14:44:16.540Z,986.81
2019-04-25T14:45:16.677Z,986.77
2019-04-25T14:46:16.778Z,986.75
2019-04-25T14:47:17.014Z,986.77
2019-04-25T14:48:17.243Z,986.75
2019-04-25T14:49:17.465Z,986.83
2019-04-25T14:50:17.639Z,986.80
2019-04-25T14:51:17.756Z,986.76
2019-04-25T14:52:17.877Z,986.81
2019-04-25T14:53:18.102Z,986.79
2019-04-25T14:54:18.347Z,986.71
2019-04-25T14:55:18.501Z,986.70
2019-04-25T14:56:18.613Z,986.68
2019-04-25T14:57:18.843Z,986.67
2019-04-25T14:58:18.966Z,986.67
2019-04-25T14:59:22.035Z,986.65
2019-04-25T15:00:21.671Z,986.64
2019-04-25T15:01:19.448Z,986.71
2019-04-25T15:02:19.575Z,986.61
2019-04-25T15:03:19.684Z,986.59
2019-04-25T15:04:19.806Z,986.63
2019-04-25T15:05:21.111Z,986.66
2019-04-25T15:06:20.225Z,986.69
2019-04-25T15:07:20.334Z,986.66
2019-04-25T15:08:20.457Z,986.64
2019-04-25T15:09:20.616Z,986.61
2019-04-25T15:10:22.952Z,986.69
2019-04-25T15:11:20.898Z,986.68
2019-04-25T15:12:21.037Z,986.69
2019-04-25T15:13:21.180Z,986.63
2019-04-25T15:14:21.317Z,986.70
2019-04-25T15:15:22.307Z,986.75
2019-04-25T15:16:22.373Z,986.77
2019-04-25T15:17:23.571Z,986.73
2019-04-25T15:18:22.413Z,986.60
2019-04-25T15:19:23.101Z,986.62
2019-04-25T15:20:23.752Z,986.63
2019-04-25T15:21:22.577Z,986.65
2019-04-25T15:22:23.180Z,986.69
2019-04-25T15:23:23.194Z,986.67
2019-04-25T15:24:23.910Z,986.65
2019-04-25T15:25:25.100Z,986.73
2019-04-25T15:26:24.605Z,986.86
2019-04-25T15:27:24.961Z,986.78
2019-04-25T15:28:24.523Z,986.77
2019-04-25T15:29:25.516Z,986.76
2019-04-25T15:30:25.046Z,986.79
2019-04-25T15:31:25.557Z,986.88
2019-04-25T15:32:25.116Z,986.79
2019-04-25T15:33:25.191Z,986.82
2019-04-25T15:34:25.972Z,986.89
2019-04-25T15:35:25.841Z,986.98
2019-04-25T15:36:25.389Z,986.91
2019-04-25T15:37:26.451Z,986.89
2019-04-25T15:38:26.992Z,986.86
2019-04-25T15:39:26.182Z,986.91
2019-04-25T15:40:26.366Z,986.90
2019-04-25T15:41:26.279Z,986.88
2019-04-25T15:42:27.353Z,986.88
2019-04-25T15:43:27.546Z,986.90
2019-04-25T15:44:26.916Z,986.91
2019-04-25T15:45:27.085Z,986.96
2019-04-25T15:46:27.387Z,986.93
2019-04-25T15:47:28.185Z,986.89
2019-04-25T15:48:27.537Z,986.85
2019-04-25T15:49:28.563Z,986.69
2019-04-25T15:50:27.845Z,986.76
2019-04-25T15:51:27.961Z,986.75
2019-04-25T15:52:29.007Z,986.75
2019-04-25T15:53:28.469Z,986.74
2019-04-25T15:54:28.522Z,986.68
2019-04-25T15:55:29.694Z,986.71
2019-04-25T15:56:28.950Z,986.71
2019-04-25T15:57:29.816Z,986.67
2019-04-25T15:58:29.805Z,986.67
2019-04-25T15:59:29.373Z,986.68
2019-04-25T16:00:30.683Z,986.75
2019-04-25T16:01:30.339Z,986.70
2019-04-25T16:02:30.255Z,986.79
2019-04-25T16:03:30.809Z,986.74
2019-04-25T16:04:30.429Z,986.66
2019-04-25T16:05:30.487Z,986.70
2019-04-25T16:06:30.677Z,986.69
2019-04-25T16:07:31.112Z,986.70
2019-04-25T16:08:31.039Z,986.74
2019-04-25T16:09:31.917Z,986.69
2019-04-25T16:10:31.900Z,986.71
2019-04-25T16:11:31.537Z,986.68
2019-04-25T16:12:31.716Z,986.70
2019-04-25T16:13:32.274Z,986.69
2019-04-25T16:14:32.090Z,986.66
2019-04-25T16:15:33.157Z,986.67
2019-04-25T16:16:33.245Z,986.61
2019-04-25T16:17:32.735Z,986.64
2019-04-25T16:18:33.169Z,986.59
2019-04-25T16:19:33.077Z,986.62
2019-04-25T16:20:33.578Z,986.66
2019-04-25T16:21:33.484Z,986.63
2019-04-25T16:22:34.409Z,986.57
2019-04-25T16:23:34.348Z,986.56
2019-04-25T16:24:34.386Z,986.61
2019-04-25T16:25:34.157Z,986.62
2019-04-25T16:26:35.667Z,986.66
2019-04-25T16:27:35.203Z,986.66
2019-04-25T16:28:34.706Z,986.67
2019-04-25T16:29:35.662Z,986.69
2019-04-25T16:30:35.038Z,986.72
2019-04-25T16:31:36.685Z,986.61
2019-04-25T16:32:35.388Z,986.67
2019-04-25T16:33:35.730Z,986.71
2019-04-25T16:34:35.766Z,986.70
2019-04-25T16:35:35.951Z,986.66
2019-04-25T16:36:36.078Z,986.71
2019-04-25T16:37:37.198Z,986.76
2019-04-25T16:38:36.424Z,986.79
2019-04-25T16:39:36.579Z,986.86
2019-04-25T16:40:36.710Z,986.77
2019-04-25T16:41:37.465Z,986.84
2019-04-25T16:42:37.169Z,986.81
2019-04-25T16:43:37.309Z,986.81
2019-04-25T16:44:37.439Z,986.82
2019-04-25T16:45:37.753Z,986.80
2019-04-25T16:46:37.817Z,986.76
2019-04-25T16:47:37.935Z,986.81
2019-04-25T16:48:39.140Z,986.80
2019-04-25T16:49:39.066Z,986.83
2019-04-25T16:50:38.404Z,986.82
2019-04-25T16:51:38.598Z,986.87
2019-04-25T16:52:38.739Z,986.90
2019-04-25T16:53:40.073Z,986.91
2019-04-25T16:54:39.223Z,986.86
2019-04-25T16:55:39.245Z,986.83
2019-04-25T16:56:39.412Z,986.80
2019-04-25T16:57:39.672Z,986.78
2019-04-25T16:58:39.701Z,986.74
2019-04-25T16:59:39.858Z,986.83
2019-04-25T17:00:40.825Z,986.79
2019-04-25T17:01:40.178Z,986.75
2019-04-25T17:02:42.200Z,986.76
2019-04-25T17:04:02.473Z,986.78
2019-04-25T17:04:41.682Z,986.81
2019-04-25T17:05:41.726Z,986.83
2019-04-25T17:06:41.097Z,986.82
2019-04-25T17:07:42.716Z,986.79
2019-04-25T17:08:41.305Z,986.82
2019-04-25T17:09:42.828Z,986.82
2019-04-25T17:10:41.719Z,986.81
2019-04-25T17:11:41.850Z,986.86
2019-04-25T17:12:41.964Z,986.81
2019-04-25T17:13:42.727Z,986.84
2019-04-25T17:14:42.395Z,986.81
2019-04-25T17:15:42.554Z,986.96
2019-04-25T17:16:42.675Z,986.95
2019-04-25T17:17:43.715Z,986.91
2019-04-25T17:18:42.940Z,986.99
2019-04-25T17:19:43.081Z,986.95
2019-04-25T17:20:43.753Z,986.92
2019-04-25T17:21:43.486Z,986.96
2019-04-25T17:22:43.665Z,986.95
2019-04-25T17:23:44.720Z,986.97
2019-04-25T17:24:43.952Z,987.03
2019-04-25T17:25:44.105Z,987.06
2019-04-25T17:26:44.264Z,987.02
2019-04-25T17:27:44.418Z,987.04
2019-04-25T17:28:44.572Z,987.09
2019-04-25T17:29:44.713Z,987.10
2019-04-25T17:30:45.882Z,987.12
2019-04-25T17:31:45.272Z,987.15
2019-04-25T17:32:52.890Z,987.14
2019-04-25T17:33:47.349Z,987.12
2019-04-25T17:34:45.579Z,987.16
2019-04-25T17:35:45.731Z,987.10
2019-04-25T17:36:45.891Z,987.14
2019-04-25T17:37:46.076Z,987.13
2019-04-25T17:38:46.219Z,987.18
2019-04-25T17:39:46.382Z,987.16
2019-04-25T17:40:46.561Z,987.16
2019-04-25T17:41:46.726Z,987.17
2019-04-25T17:42:46.891Z,987.23
2019-04-25T17:43:47.056Z,987.19
2019-04-25T17:44:47.731Z,987.19
2019-04-25T17:45:48.233Z,987.25
2019-04-25T17:46:47.467Z,987.24
2019-04-25T17:47:54.660Z,987.27
2019-04-25T17:48:49.840Z,987.31
2019-04-25T17:49:47.959Z,987.26
2019-04-25T17:50:48.229Z,987.39
2019-04-25T17:51:48.274Z,987.37
2019-04-25T17:52:48.430Z,987.45
2019-04-25T17:53:48.611Z,987.45
2019-04-25T17:54:48.821Z,987.41
2019-04-25T17:55:49.005Z,987.41
2019-04-25T17:56:49.166Z,987.45
2019-04-25T17:57:49.368Z,987.48
2019-04-25T17:58:49.515Z,987.56
2019-04-25T17:59:49.699Z,987.61
2019-04-25T18:00:49.884Z,987.56
2019-04-25T18:01:52.204Z,987.54
2019-04-25T18:02:58.701Z,987.58
2019-04-25T18:03:52.324Z,987.59
2019-04-25T18:04:50.521Z,987.57
2019-04-25T18:05:50.577Z,987.62
2019-04-25T18:06:50.753Z,987.58
2019-04-25T18:07:50.927Z,987.58
2019-04-25T18:08:51.243Z,987.57
2019-04-25T18:09:51.284Z,987.57
2019-04-25T18:10:51.746Z,987.54
2019-04-25T18:11:51.659Z,987.57
2019-04-25T18:12:51.812Z,987.53
2019-04-25T18:13:51.997Z,987.55
2019-04-25T18:14:52.164Z,987.63
2019-04-25T18:15:52.328Z,987.66
2019-04-25T18:16:53.224Z,987.69
2019-04-25T18:17:52.746Z,987.78
2019-04-25T18:18:52.908Z,987.79
2019-04-25T18:19:53.069Z,987.82
2019-04-25T18:20:53.246Z,987.78
2019-04-25T18:21:54.240Z,987.88
2019-04-25T18:22:53.635Z,987.91
2019-04-25T18:23:53.811Z,987.87
2019-04-25T18:24:54.197Z,987.92
2019-04-25T18:25:55.124Z,988.00
2019-04-25T18:26:54.257Z,988.01
2019-04-25T18:27:54.428Z,988.04
2019-04-25T18:28:54.636Z,988.03
2019-04-25T18:29:54.839Z,988.08
2019-04-25T18:30:55.037Z,988.12
2019-04-25T18:31:55.213Z,988.12
2019-04-25T18:32:55.408Z,988.17
2019-04-25T18:33:55.646Z,988.23
2019-04-25T18:34:55.839Z,988.31
2019-04-25T18:35:56.050Z,988.41
2019-04-25T18:36:56.279Z,988.41
2019-04-25T18:37:56.475Z,988.43
2019-04-25T18:38:57.243Z,988.51
2019-04-25T18:39:56.917Z,988.46
2019-04-25T18:40:57.165Z,988.47
2019-04-25T18:41:57.346Z,988.52
2019-04-25T18:42:58.233Z,988.52
2019-04-25T18:43:57.768Z,988.57
2019-04-25T18:44:58.750Z,988.57
2019-04-25T18:45:58.252Z,988.65
2019-04-25T18:46:59.236Z,988.64
2019-04-25T18:47:58.487Z,988.74
2019-04-25T18:48:58.624Z,988.79
2019-04-25T18:49:59.762Z,988.83
2019-04-25T18:50:59.754Z,988.83
2019-04-25T18:51:59.154Z,988.80
2019-04-25T18:52:59.327Z,988.78
2019-04-25T18:54:00.255Z,988.76
2019-04-25T18:54:59.639Z,988.78
2019-04-25T18:55:59.795Z,988.75
2019-04-25T18:56:59.958Z,988.79
2019-04-25T18:58:00.131Z,988.83
2019-04-25T18:59:00.286Z,988.90
2019-04-25T19:00:01.249Z,988.87
2019-04-25T19:01:00.662Z,988.90
2019-04-25T19:02:01.741Z,989.06
2019-04-25T19:03:00.996Z,989.13
2019-04-25T19:04:01.177Z,989.14
2019-04-25T19:05:01.367Z,989.20
2019-04-25T19:06:02.259Z,989.27
2019-04-25T19:07:02.274Z,989.21
2019-04-25T19:08:01.899Z,989.21
2019-04-25T19:09:02.745Z,989.23
2019-04-25T19:10:02.281Z,989.28
2019-04-25T19:11:02.528Z,989.20
2019-04-25T19:12:02.596Z,989.25
2019-04-25T19:13:12.580Z,989.31
2019-04-25T19:14:03.902Z,989.32
2019-04-25T19:15:04.029Z,989.36
2019-04-25T19:16:03.267Z,989.44
2019-04-25T19:17:03.444Z,989.43
2019-04-25T19:18:03.642Z,989.51
2019-04-25T19:19:03.787Z,989.51
2019-04-25T19:20:03.922Z,989.55
2019-04-25T19:21:04.742Z,989.55
2019-04-25T19:22:04.758Z,989.60
2019-04-25T19:23:05.250Z,989.61
2019-04-25T19:24:04.602Z,989.65
2019-04-25T19:25:04.774Z,989.65
2019-04-25T19:26:04.922Z,989.60
2019-04-25T19:27:05.743Z,989.65
2019-04-25T19:28:05.242Z,989.68
2019-04-25T19:29:05.386Z,989.66
2019-04-25T19:30:05.774Z,989.68
2019-04-25T19:31:05.760Z,989.71
2019-04-25T19:32:05.900Z,989.67
2019-04-25T19:33:07.634Z,989.69
2019-04-25T19:34:07.197Z,989.85
2019-04-25T19:35:06.455Z,989.79
2019-04-25T19:36:07.268Z,989.77
2019-04-25T19:37:06.772Z,989.86
2019-04-25T19:38:07.047Z,989.93
2019-04-25T19:39:07.188Z,989.91
2019-04-25T19:40:08.251Z,989.89
2019-04-25T19:41:08.261Z,989.97
2019-04-25T19:42:07.638Z,989.93
2019-04-25T19:43:08.765Z,989.96
2019-04-25T19:44:08.264Z,990.01
2019-04-25T19:45:08.152Z,989.96
2019-04-25T19:46:08.285Z,989.97
2019-04-25T19:47:09.254Z,990.06
2019-04-25T19:48:08.722Z,990.05
2019-04-25T19:49:09.755Z,990.07
2019-04-25T19:50:09.005Z,990.11
2019-04-25T19:51:09.144Z,990.18
2019-04-25T19:52:09.259Z,990.23
2019-04-25T19:53:09.429Z,990.23
2019-04-25T19:54:09.583Z,990.25
2019-04-25T19:55:09.736Z,990.32
2019-04-25T19:56:09.918Z,990.31
2019-04-25T19:57:10.041Z,990.30
2019-04-25T19:58:10.185Z,990.32
2019-04-25T19:59:10.312Z,990.39
2019-04-25T20:00:10.465Z,990.37
2019-04-25T20:01:10.585Z,990.33
2019-04-25T20:02:10.761Z,990.31
2019-04-25T20:03:11.769Z,990.33
2019-04-25T20:04:11.037Z,990.33
2019-04-25T20:05:11.208Z,990.32
2019-04-25T20:06:11.379Z,990.33
2019-04-25T20:07:11.562Z,990.43
2019-04-25T20:08:12.253Z,990.44
2019-04-25T20:09:11.898Z,990.52
2019-04-25T20:10:12.062Z,990.55
2019-04-25T20:11:12.199Z,990.56
2019-04-25T20:12:12.398Z,990.56
2019-04-25T20:13:13.260Z,990.55
2019-04-25T20:14:12.775Z,990.54
2019-04-25T20:15:12.931Z,990.61
2019-04-25T20:16:13.771Z,990.57
2019-04-25T20:17:13.319Z,990.52
2019-04-25T20:18:13.502Z,990.52
2019-04-25T20:19:13.672Z,990.51
2019-04-25T20:20:13.836Z,990.50
2019-04-25T20:21:14.015Z,990.45
2019-04-25T20:22:14.213Z,990.40
2019-04-25T20:23:14.465Z,990.42
2019-04-25T20:24:15.263Z,990.42
2019-04-25T20:25:14.778Z,990.44
2019-04-25T20:26:14.973Z,990.46
2019-04-25T20:27:15.768Z,990.49
2019-04-25T20:28:15.339Z,990.54
2019-04-25T20:29:16.274Z,990.47
2019-04-25T20:30:15.700Z,990.50
2019-04-25T20:31:15.866Z,990.49
2019-04-25T20:32:16.093Z,990.49
2019-04-25T20:33:16.331Z,990.46
2019-04-25T20:34:16.533Z,990.42
2019-04-25T20:35:16.740Z,990.43
2019-04-25T20:36:17.834Z,990.44
2019-04-25T20:37:18.074Z,990.50
2019-04-25T20:38:17.272Z,990.50
2019-04-25T20:39:18.257Z,990.47
2019-04-25T20:40:17.657Z,990.61
2019-04-25T20:41:17.915Z,990.48
2019-04-25T20:42:18.048Z,990.56
2019-04-25T20:43:18.224Z,990.51
2019-04-25T20:44:19.260Z,990.59
2019-04-25T20:45:18.578Z,990.62
2019-04-25T20:46:18.745Z,990.66
2019-04-25T20:47:18.905Z,990.63
2019-04-25T20:48:19.136Z,990.57
2019-04-25T20:49:20.265Z,990.62
2019-04-25T20:50:19.532Z,990.64
2019-04-25T20:51:19.711Z,990.61
2019-04-25T20:52:19.891Z,990.68
2019-04-25T20:53:20.054Z,990.69
2019-04-25T20:54:20.239Z,990.59
2019-04-25T20:55:20.408Z,990.62
2019-04-25T20:56:20.581Z,990.62
2019-04-25T20:57:20.742Z,990.61
2019-04-25T20:58:20.903Z,990.64
2019-04-25T20:59:21.094Z,990.62
2019-04-25T21:00:21.249Z,990.63
2019-04-25T21:01:21.421Z,990.68
2019-04-25T21:02:21.599Z,990.65
2019-04-25T21:03:21.775Z,990.62
2019-04-25T21:04:21.973Z,990.65
2019-04-25T21:05:22.279Z,990.68
2019-04-25T21:06:23.287Z,990.69
2019-04-25T21:07:22.528Z,990.70
2019-04-25T21:08:24.473Z,990.76
2019-04-25T21:09:23.899Z,990.75
2019-04-25T21:10:23.278Z,990.87
2019-04-25T21:11:23.153Z,990.80
2019-04-25T21:12:23.299Z,990.82
2019-04-25T21:13:24.267Z,990.90
2019-04-25T21:14:23.628Z,990.93
2019-04-25T21:15:23.765Z,990.96
2019-04-25T21:16:24.785Z,990.99
2019-04-25T21:17:24.180Z,991.01
2019-04-25T21:18:24.305Z,990.94
2019-04-25T21:19:25.259Z,990.94
2019-04-25T21:20:24.812Z,990.89
2019-04-25T21:21:24.812Z,990.82
2019-04-25T21:22:25.769Z,990.83
2019-04-25T21:23:25.115Z,990.81
2019-04-25T21:24:25.286Z,990.78
2019-04-25T21:25:25.447Z,990.85
2019-04-25T21:26:25.575Z,990.80
2019-04-25T21:27:25.711Z,990.83
2019-04-25T21:28:26.774Z,990.85
2019-04-25T21:29:26.141Z,990.83
2019-04-25T21:30:26.290Z,990.87
2019-04-25T21:31:26.499Z,990.85
2019-04-25T21:32:26.676Z,990.84
2019-04-25T21:33:26.847Z,990.87
2019-04-25T21:34:29.634Z,990.83
2019-04-25T21:35:27.316Z,990.85
2019-04-25T21:36:27.482Z,990.83
2019-04-25T21:37:27.634Z,990.89
2019-04-25T21:38:27.794Z,990.89
2019-04-25T21:39:28.794Z,990.93
2019-04-25T21:40:28.210Z,990.90
2019-04-25T21:41:28.444Z,990.89
2019-04-25T21:42:28.526Z,990.81
2019-04-25T21:43:28.725Z,990.85
2019-04-25T21:44:28.924Z,990.91
2019-04-25T21:45:29.092Z,990.88
2019-04-25T21:46:29.297Z,990.87
2019-04-25T21:47:29.342Z,990.91
2019-04-25T21:48:29.513Z,990.87
2019-04-25T21:49:29.695Z,990.91
2019-04-25T21:50:29.863Z,990.92
2019-04-25T21:51:30.067Z,990.90
2019-04-25T21:52:30.214Z,990.99
2019-04-25T21:53:31.276Z,990.97
2019-04-25T21:54:30.512Z,990.99
2019-04-25T21:55:30.638Z,990.96
2019-04-25T21:56:30.784Z,990.97
2019-04-25T21:57:30.925Z,990.96
2019-04-25T21:58:31.110Z,990.90
2019-04-25T21:59:31.298Z,990.97
2019-04-25T22:00:31.495Z,991.03
2019-04-25T22:01:31.660Z,991.00
2019-04-25T22:02:31.832Z,990.94
2019-04-25T22:03:32.066Z,990.97
2019-04-25T22:04:38.704Z,990.93
2019-04-25T22:05:34.384Z,990.94
2019-04-25T22:06:32.557Z,990.97
2019-04-25T22:07:32.748Z,990.99
2019-04-25T22:08:32.987Z,991.04
2019-04-25T22:09:33.160Z,990.99
2019-04-25T22:10:34.315Z,991.04
2019-04-25T22:11:33.484Z,990.98
2019-04-25T22:12:33.657Z,991.09
2019-04-25T22:13:33.866Z,991.04
2019-04-25T22:14:34.048Z,991.12
2019-04-25T22:15:34.246Z,991.17
2019-04-25T22:16:34.388Z,991.16
2019-04-25T22:17:34.604Z,991.14
2019-04-25T22:18:34.784Z,991.18
2019-04-25T22:19:34.990Z,991.18
2019-04-25T22:20:35.144Z,991.32
2019-04-25T22:21:38.254Z,991.29
2019-04-25T22:22:36.539Z,991.34
2019-04-25T22:23:35.719Z,991.44
2019-04-25T22:24:35.927Z,991.47
2019-04-25T22:25:36.117Z,991.55
2019-04-25T22:26:36.333Z,991.47